Time;durP1;ratioP1;P1;durP2;ratioP2;P2;SDS_P1;SDS_P2;PMS_P1;PMS_P2;Temp;Humidity;BMP_temperature;BMP_pressure;BME280_temperature;BME280_humidity;BME280_pressure;Samples;Min_cycle;Max_cycle;Signal;HPM_P1;HPM_P2
2021/12/29 00:00:33;;;;;;;97.83;50.23;;;;;;;;;;5016823;28;20116;-81
2021/12/29 00:03:01;;;;;;;97.30;55.03;;;;;;;;;;5033764;28;20056;-82
2021/12/29 00:05:28;;;;;;;114.53;59.23;;;;;;;;;;5033653;28;20546;-81
2021/12/29 00:07:54;;;;;;;120.40;64.30;;;;;;;;;;5026974;28;20495;-81
2021/12/29 00:10:20;;;;;;;118.97;65.33;;;;;;;;;;5017056;28;20096;-82
2021/12/29 00:12:51;;;;;;;107.33;60.70;;;;;;;;;;5034679;28;20289;-81
2021/12/29 00:15:18;;;;;;;113.00;61.90;;;;;;;;;;5034164;28;20433;-81
2021/12/29 00:17:45;;;;;;;110.20;58.30;;;;;;;;;;5034337;28;20069;-81
2021/12/29 00:20:13;;;;;;;99.67;54.73;;;;;;;;;;5035177;28;20326;-81
2021/12/29 00:22:39;;;;;;;96.37;54.97;;;;;;;;;;5035536;28;20464;-82
2021/12/29 00:25:06;;;;;;;96.40;55.07;;;;;;;;;;5018578;28;20033;-81
2021/12/29 00:27:33;;;;;;;95.17;52.50;;;;;;;;;;5021796;28;20461;-81
2021/12/29 00:29:59;;;;;;;96.83;53.27;;;;;;;;;;5034461;28;20072;-82
2021/12/29 00:32:27;;;;;;;100.00;55.27;;;;;;;;;;5034403;28;20075;-82
2021/12/29 00:34:53;;;;;;;101.63;54.87;;;;;;;;;;5033987;28;20076;-82
2021/12/29 00:37:20;;;;;;;93.03;52.77;;;;;;;;;;5034081;28;20034;-82
2021/12/29 00:39:46;;;;;;;101.83;54.80;;;;;;;;;;5033743;28;20029;-81
2021/12/29 00:42:12;;;;;;;93.33;52.60;;;;;;;;;;5025032;28;20025;-80
2021/12/29 00:44:40;;;;;;;97.37;53.60;;;;;;;;;;5033709;28;20018;-82
2021/12/29 00:47:06;;;;;;;96.87;52.53;;;;;;;;;;5035762;28;20025;-81
2021/12/29 00:49:35;;;;;;;101.47;54.07;;;;;;;;;;5039785;28;20033;-82
2021/12/29 00:52:05;;;;;;;98.77;53.43;;;;;;;;;;5036683;28;20052;-82
2021/12/29 00:54:31;;;;;;;104.57;56.57;;;;;;;;;;5033695;28;20464;-82
2021/12/29 00:56:57;;;;;;;96.03;54.27;;;;;;;;;;5035053;28;20028;-82
2021/12/29 00:59:24;;;;;;;90.33;52.10;;;;;;;;;;5034891;28;20028;-81
2021/12/29 01:01:50;;;;;;;87.90;51.10;;;;;;;;;;5014723;28;20049;-81
2021/12/29 01:04:17;;;;;;;87.60;46.43;;;;;;;;;;5034037;28;20017;-81
2021/12/29 01:06:43;;;;;;;90.70;49.93;;;;;;;;;;5028959;28;20021;-80
2021/12/29 01:09:10;;;;;;;73.57;43.67;;;;;;;;;;5026102;28;20738;-82
2021/12/29 01:11:37;;;;;;;78.93;44.90;;;;;;;;;;5023277;28;20061;-81
2021/12/29 01:14:04;;;;;;;85.70;46.63;;;;;;;;;;5030684;28;20465;-82
2021/12/29 01:18:58;;;;;;;96.07;43.40;;;;;;;;;;5030621;28;20493;-82
2021/12/29 01:21:25;;;;;;;91.37;48.37;;;;;;;;;;5032949;28;20033;-82
2021/12/29 01:23:51;;;;;;;88.63;50.67;;;;;;;;;;5015687;28;20033;-81
2021/12/29 01:26:17;;;;;;;94.60;50.57;;;;;;;;;;5015887;28;20091;-81
2021/12/29 01:28:44;;;;;;;102.90;53.70;;;;;;;;;;5032444;28;20029;-81
2021/12/29 01:31:10;;;;;;;94.87;50.03;;;;;;;;;;5028645;28;20035;-81
2021/12/29 01:33:37;;;;;;;95.40;51.50;;;;;;;;;;5033404;28;20057;-81
2021/12/29 01:36:03;;;;;;;99.70;53.27;;;;;;;;;;5013698;28;20388;-82
2021/12/29 01:38:30;;;;;;;96.43;50.37;;;;;;;;;;5032359;28;20100;-81
2021/12/29 01:40:56;;;;;;;105.03;51.80;;;;;;;;;;5032357;28;20025;-82
2021/12/29 01:43:22;;;;;;;90.60;50.90;;;;;;;;;;5031444;28;20483;-81
2021/12/29 01:45:49;;;;;;;89.23;47.43;;;;;;;;;;5031814;28;20033;-82
2021/12/29 01:48:18;;;;;;;95.00;48.80;;;;;;;;;;5024229;28;20408;-80
2021/12/29 01:50:49;;;;;;;98.00;47.07;;;;;;;;;;5030553;28;20060;-82
2021/12/29 01:53:22;;;;;;;95.07;47.33;;;;;;;;;;5026344;28;20032;-81
2021/12/29 01:55:49;;;;;;;79.87;42.37;;;;;;;;;;5027168;28;20037;-82
2021/12/29 01:58:16;;;;;;;80.77;42.37;;;;;;;;;;5011141;28;20457;-82
2021/12/29 02:00:43;;;;;;;76.27;41.00;;;;;;;;;;5029689;28;20040;-81
2021/12/29 02:03:09;;;;;;;84.40;44.10;;;;;;;;;;5025088;28;20079;-82
2021/12/29 02:05:36;;;;;;;91.20;44.17;;;;;;;;;;5021985;28;20089;-81
2021/12/29 02:08:04;;;;;;;90.33;47.27;;;;;;;;;;5026969;28;20052;-83
2021/12/29 02:10:36;;;;;;;93.30;48.67;;;;;;;;;;5008906;28;20029;-83
2021/12/29 02:13:02;;;;;;;98.37;52.33;;;;;;;;;;5027284;28;20041;-82
2021/12/29 02:15:28;;;;;;;102.67;55.30;;;;;;;;;;5029314;28;20033;-81
2021/12/29 02:17:55;;;;;;;114.20;62.00;;;;;;;;;;5022383;28;20107;-81
2021/12/29 02:20:21;;;;;;;116.90;61.03;;;;;;;;;;5027672;28;20026;-80
2021/12/29 02:23:00;;;;;;;113.93;63.37;;;;;;;;;;5030756;28;20082;-83
2021/12/29 02:25:46;;;;;;;120.87;64.13;;;;;;;;;;5011597;28;20064;-83
2021/12/29 02:28:13;;;;;;;118.53;65.30;;;;;;;;;;5009577;28;20025;-82
2021/12/29 02:30:40;;;;;;;125.33;70.17;;;;;;;;;;5028556;28;20451;-83
2021/12/29 02:33:07;;;;;;;139.97;76.47;;;;;;;;;;5026423;28;20022;-82
2021/12/29 02:35:33;;;;;;;150.87;84.80;;;;;;;;;;5030347;28;20040;-82
2021/12/29 02:38:01;;;;;;;160.30;95.13;;;;;;;;;;5033152;28;20029;-81
2021/12/29 02:40:31;;;;;;;166.03;95.47;;;;;;;;;;5032664;28;20037;-82
2021/12/29 02:42:57;;;;;;;161.87;92.23;;;;;;;;;;5033578;28;20520;-82
2021/12/29 02:45:26;;;;;;;161.30;93.50;;;;;;;;;;5012179;28;20037;-82
2021/12/29 02:47:52;;;;;;;165.90;93.90;;;;;;;;;;5032186;28;20538;-81
2021/12/29 02:50:18;;;;;;;157.03;88.67;;;;;;;;;;5032544;28;20344;-82
2021/12/29 02:52:45;;;;;;;152.87;88.07;;;;;;;;;;5031816;28;20498;-84
2021/12/29 02:55:12;;;;;;;154.70;87.97;;;;;;;;;;5025980;28;20084;-83
2021/12/29 02:57:38;;;;;;;149.10;84.57;;;;;;;;;;5010279;28;20026;-83
2021/12/29 03:00:06;;;;;;;165.40;86.10;;;;;;;;;;5025026;28;20025;-84
2021/12/29 03:02:32;;;;;;;162.33;83.37;;;;;;;;;;5006701;28;20060;-84
2021/12/29 03:04:58;;;;;;;154.40;83.37;;;;;;;;;;5008646;28;20061;-80
2021/12/29 03:07:25;;;;;;;169.27;87.90;;;;;;;;;;5025179;28;20026;-83
2021/12/29 03:09:51;;;;;;;149.80;81.23;;;;;;;;;;5032591;28;20388;-82
2021/12/29 03:12:18;;;;;;;160.80;85.17;;;;;;;;;;5019532;28;20037;-81
2021/12/29 03:14:52;;;;;;;154.93;73.17;;;;;;;;;;5007498;28;20073;-83
2021/12/29 03:17:18;;;;;;;148.00;73.50;;;;;;;;;;5026216;28;20052;-82
2021/12/29 03:19:45;;;;;;;125.63;64.70;;;;;;;;;;5022559;28;20021;-83
2021/12/29 03:22:11;;;;;;;115.00;61.17;;;;;;;;;;5007333;28;20029;-82
2021/12/29 03:24:37;;;;;;;102.43;49.23;;;;;;;;;;5006846;28;20033;-82
2021/12/29 03:27:04;;;;;;;102.77;47.27;;;;;;;;;;5006569;28;20029;-83
2021/12/29 03:29:30;;;;;;;107.17;51.00;;;;;;;;;;5024946;28;20030;-83
2021/12/29 03:31:59;;;;;;;97.57;51.23;;;;;;;;;;5023324;28;20048;-83
2021/12/29 03:34:28;;;;;;;105.63;54.17;;;;;;;;;;5002152;28;20037;-83
2021/12/29 03:36:56;;;;;;;107.47;52.57;;;;;;;;;;5025046;28;20542;-83
2021/12/29 03:39:24;;;;;;;107.53;56.27;;;;;;;;;;5024401;28;20029;-84
2021/12/29 03:41:50;;;;;;;106.30;54.43;;;;;;;;;;5026544;28;20033;-82
2021/12/29 03:44:16;;;;;;;116.97;55.43;;;;;;;;;;5032404;28;20145;-83
2021/12/29 03:46:42;;;;;;;119.73;57.13;;;;;;;;;;5018493;28;20696;-83
2021/12/29 03:49:10;;;;;;;112.60;54.73;;;;;;;;;;5031051;28;20025;-83
2021/12/29 03:51:39;;;;;;;115.17;55.57;;;;;;;;;;5008027;28;20037;-83
2021/12/29 03:54:06;;;;;;;109.90;52.37;;;;;;;;;;5022611;28;20040;-82
2021/12/29 03:56:33;;;;;;;105.60;53.47;;;;;;;;;;5026777;28;20171;-84
2021/12/29 03:58:59;;;;;;;119.00;55.40;;;;;;;;;;5027882;28;20160;-84
2021/12/29 04:01:25;;;;;;;109.80;55.00;;;;;;;;;;5023907;28;20122;-84
2021/12/29 04:03:52;;;;;;;118.67;54.83;;;;;;;;;;5008058;28;20045;-83
2021/12/29 04:06:20;;;;;;;109.10;54.07;;;;;;;;;;5027330;28;20140;-83
2021/12/29 04:08:47;;;;;;;106.63;52.20;;;;;;;;;;5025189;28;20182;-82
2021/12/29 04:11:13;;;;;;;108.77;51.60;;;;;;;;;;5024264;28;20048;-83
2021/12/29 04:13:40;;;;;;;105.37;52.57;;;;;;;;;;5024978;28;20040;-83
2021/12/29 04:16:12;;;;;;;108.47;54.57;;;;;;;;;;5024847;28;20033;-85
2021/12/29 04:18:45;;;;;;;120.75;54.45;;;;;;;;;;5026773;28;20436;-82
2021/12/29 04:21:11;;;;;;;112.72;54.55;;;;;;;;;;5040624;28;20088;-83
2021/12/29 04:23:40;;;;;;;108.82;51.90;;;;;;;;;;5036084;28;20029;-81
2021/12/29 04:26:08;;;;;;;105.03;53.55;;;;;;;;;;5046649;28;20029;-83
2021/12/29 04:28:34;;;;;;;106.53;53.17;;;;;;;;;;5041680;28;20101;-81
2021/12/29 04:31:05;;;;;;;111.18;55.10;;;;;;;;;;5021788;28;20029;-83
2021/12/29 04:33:32;;;;;;;113.63;55.20;;;;;;;;;;5019411;28;20085;-82
2021/12/29 04:35:58;;;;;;;104.18;56.42;;;;;;;;;;5025265;28;20128;-84
2021/12/29 04:38:25;;;;;;;115.13;57.05;;;;;;;;;;5022182;28;20416;-83
2021/12/29 04:40:53;;;;;;;126.78;56.70;;;;;;;;;;5024101;28;20136;-84
2021/12/29 04:43:20;;;;;;;117.93;56.83;;;;;;;;;;5004475;28;20465;-84
2021/12/29 04:45:46;;;;;;;112.10;56.70;;;;;;;;;;5003328;28;20101;-84
2021/12/29 04:48:14;;;;;;;108.28;56.22;;;;;;;;;;5001729;28;20344;-82
2021/12/29 04:50:42;;;;;;;105.60;54.22;;;;;;;;;;5001133;28;20034;-85
2021/12/29 04:53:09;;;;;;;125.20;58.58;;;;;;;;;;5008761;28;20033;-82
2021/12/29 04:55:36;;;;;;;129.40;59.35;;;;;;;;;;5023685;28;20475;-82
2021/12/29 04:58:03;;;;;;;117.00;57.78;;;;;;;;;;5015568;28;20033;-81
2021/12/29 05:00:31;;;;;;;107.38;57.85;;;;;;;;;;5000771;28;20476;-82
2021/12/29 05:02:58;;;;;;;114.72;56.72;;;;;;;;;;5018800;28;20034;-82
2021/12/29 05:10:42;;;;;;;111.22;57.28;;;;;;;;;;5017363;28;20088;-83
2021/12/29 05:13:09;;;;;;;135.68;57.90;;;;;;;;;;5015683;28;20061;-86
2021/12/29 05:15:35;;;;;;;98.30;54.92;;;;;;;;;;5020058;28;20064;-80
2021/12/29 05:18:02;;;;;;;114.00;57.35;;;;;;;;;;5024734;28;20120;-81
2021/12/29 05:20:29;;;;;;;123.22;67.10;;;;;;;;;;5018569;28;20060;-83
2021/12/29 05:22:56;;;;;;;136.65;70.53;;;;;;;;;;5017992;28;20035;-83
2021/12/29 05:25:23;;;;;;;153.60;80.13;;;;;;;;;;5020208;28;20139;-82
2021/12/29 05:27:50;;;;;;;161.93;82.00;;;;;;;;;;5022464;28;20041;-83
2021/12/29 05:30:16;;;;;;;169.30;92.93;;;;;;;;;;5004428;28;20465;-83
2021/12/29 05:32:43;;;;;;;178.15;96.50;;;;;;;;;;5001591;28;20029;-82
2021/12/29 05:35:09;;;;;;;201.23;110.85;;;;;;;;;;5008449;28;20677;-82
2021/12/29 05:37:36;;;;;;;221.63;124.15;;;;;;;;;;5024911;28;20212;-81
2021/12/29 05:40:02;;;;;;;246.20;127.32;;;;;;;;;;5006535;28;20104;-81
2021/12/29 05:42:29;;;;;;;236.38;124.80;;;;;;;;;;5023606;28;20040;-82
2021/12/29 05:44:55;;;;;;;238.18;130.48;;;;;;;;;;5015326;28;20073;-82
2021/12/29 05:47:22;;;;;;;221.02;127.18;;;;;;;;;;5025016;28;20109;-83
2021/12/29 05:49:48;;;;;;;162.13;96.00;;;;;;;;;;5003845;28;20025;-83
2021/12/29 05:52:15;;;;;;;162.00;93.93;;;;;;;;;;5003435;28;20071;-83
2021/12/29 05:54:42;;;;;;;150.20;90.25;;;;;;;;;;5021086;28;20037;-83
2021/12/29 05:57:11;;;;;;;188.57;104.80;;;;;;;;;;5022492;28;20036;-84
2021/12/29 05:59:38;;;;;;;179.43;100.70;;;;;;;;;;5019038;28;20057;-83
2021/12/29 06:02:04;;;;;;;170.27;96.97;;;;;;;;;;5027521;28;20029;-83
2021/12/29 06:04:31;;;;;;;148.88;83.72;;;;;;;;;;5028294;28;20036;-82
2021/12/29 06:06:58;;;;;;;139.73;82.10;;;;;;;;;;5011626;28;20468;-81
2021/12/29 06:09:33;;;;;;;103.95;55.65;;;;;;;;;;5007609;28;20057;-85
2021/12/29 06:12:34;;;;;;;91.82;52.03;;;;;;;;;;5004655;28;20132;-84
2021/12/29 06:15:09;;;;;;;75.82;44.90;;;;;;;;;;5006905;28;20037;-86
2021/12/29 06:17:38;;;;;;;62.78;31.50;;;;;;;;;;5023432;28;20096;-85
2021/12/29 06:20:06;;;;;;;57.83;34.58;;;;;;;;;;5020660;28;20168;-87
2021/12/29 06:22:55;;;;;;;54.30;32.03;;;;;;;;;;5027293;28;20080;-85
2021/12/29 06:25:29;;;;;;;74.13;43.58;;;;;;;;;;4997834;28;20045;-85
2021/12/29 06:27:55;;;;;;;249.38;149.15;;;;;;;;;;5021100;28;20033;-87
2021/12/29 06:30:24;;;;;;;383.10;257.65;;;;;;;;;;5024043;28;20044;-84
2021/12/29 06:32:51;;;;;;;352.15;220.45;;;;;;;;;;5009512;28;20100;-85
2021/12/29 06:35:17;;;;;;;407.08;265.23;;;;;;;;;;5016347;28;20424;-87
2021/12/29 06:37:44;;;;;;;365.30;238.50;;;;;;;;;;5023082;28;20030;-84
2021/12/29 06:40:11;;;;;;;284.85;177.93;;;;;;;;;;5032100;28;20029;-85
2021/12/29 06:42:37;;;;;;;231.15;146.45;;;;;;;;;;5032627;28;20033;-82
2021/12/29 06:45:04;;;;;;;83.95;47.55;;;;;;;;;;5013585;28;20029;-85
2021/12/29 06:47:30;;;;;;;54.35;30.52;;;;;;;;;;5008181;28;20030;-84
2021/12/29 06:49:56;;;;;;;38.47;20.45;;;;;;;;;;5004714;28;20120;-84
2021/12/29 06:52:23;;;;;;;26.20;12.93;;;;;;;;;;5023065;28;20369;-85
2021/12/29 06:54:49;;;;;;;21.80;10.80;;;;;;;;;;5003658;28;20040;-82
2021/12/29 06:57:15;;;;;;;14.75;8.10;;;;;;;;;;5022156;28;20025;-87
2021/12/29 06:59:42;;;;;;;20.40;9.00;;;;;;;;;;5007853;28;20029;-86
2021/12/29 07:02:10;;;;;;;20.40;8.55;;;;;;;;;;5005849;28;20033;-85
2021/12/29 07:04:37;;;;;;;14.98;6.90;;;;;;;;;;5025529;28;20893;-86
2021/12/29 07:07:03;;;;;;;17.17;7.03;;;;;;;;;;5023600;28;20018;-84
2021/12/29 07:09:30;;;;;;;20.10;8.35;;;;;;;;;;5009636;28;20025;-84
2021/12/29 07:11:56;;;;;;;13.00;7.05;;;;;;;;;;5004738;28;20057;-83
2021/12/29 07:14:26;;;;;;;14.27;6.72;;;;;;;;;;5012116;28;20380;-83
2021/12/29 07:16:52;;;;;;;19.02;7.50;;;;;;;;;;5010316;28;20347;-83
2021/12/29 07:19:20;;;;;;;16.60;6.82;;;;;;;;;;5011330;28;20037;-85
2021/12/29 07:21:49;;;;;;;9.98;5.82;;;;;;;;;;5011754;28;20021;-84
2021/12/29 07:24:16;;;;;;;15.73;6.93;;;;;;;;;;5010194;28;20430;-84
2021/12/29 07:26:42;;;;;;;19.70;7.68;;;;;;;;;;5025105;28;20241;-82
2021/12/29 07:29:09;;;;;;;15.23;7.63;;;;;;;;;;5010755;28;20048;-80
2021/12/29 07:31:36;;;;;;;12.70;7.05;;;;;;;;;;5027811;28;20079;-81
2021/12/29 07:34:02;;;;;;;16.30;6.32;;;;;;;;;;5007166;28;20265;-83
2021/12/29 07:36:28;;;;;;;13.13;7.05;;;;;;;;;;5009192;28;20033;-85
2021/12/29 07:38:55;;;;;;;18.13;8.82;;;;;;;;;;5024192;28;20064;-84
2021/12/29 07:41:21;;;;;;;11.27;5.75;;;;;;;;;;5024342;28;20078;-83
2021/12/29 07:43:50;;;;;;;18.25;7.60;;;;;;;;;;5008465;28;20033;-84
2021/12/29 07:46:17;;;;;;;13.48;7.20;;;;;;;;;;5028912;28;20029;-87
2021/12/29 07:48:43;;;;;;;15.20;7.82;;;;;;;;;;5009113;28;20071;-83
2021/12/29 07:51:11;;;;;;;18.70;9.30;;;;;;;;;;5013984;28;20064;-84
2021/12/29 07:53:38;;;;;;;19.75;9.50;;;;;;;;;;5015351;28;20355;-84
2021/12/29 07:56:06;;;;;;;19.98;9.98;;;;;;;;;;5011250;28;20037;-84
2021/12/29 07:58:33;;;;;;;23.60;12.98;;;;;;;;;;5017142;28;20033;-86
2021/12/29 08:01:01;;;;;;;23.02;11.10;;;;;;;;;;5031307;28;20056;-85
2021/12/29 08:03:27;;;;;;;22.33;12.43;;;;;;;;;;5027855;28;20049;-85
2021/12/29 08:05:54;;;;;;;27.35;13.70;;;;;;;;;;5034797;28;20061;-85
2021/12/29 08:08:20;;;;;;;362.17;247.27;;;;;;;;;;5030748;28;20029;-85
2021/12/29 08:10:46;;;;;;;368.27;254.25;;;;;;;;;;5036059;28;20032;-85
2021/12/29 08:13:13;;;;;;;379.30;256.80;;;;;;;;;;5032587;28;20036;-88
2021/12/29 08:15:39;;;;;;;404.10;273.42;;;;;;;;;;5006815;28;20052;-83
2021/12/29 08:18:06;;;;;;;407.60;280.65;;;;;;;;;;5022185;28;20780;-86
2021/12/29 08:20:35;;;;;;;476.33;321.45;;;;;;;;;;5031921;28;20052;-86
2021/12/29 08:23:02;;;;;;;488.80;342.33;;;;;;;;;;5041243;28;20028;-84
2021/12/29 08:25:29;;;;;;;500.38;352.58;;;;;;;;;;5017752;28;20033;-83
2021/12/29 08:27:55;;;;;;;517.67;354.48;;;;;;;;;;5032393;28;20029;-85
2021/12/29 08:30:22;;;;;;;503.33;350.67;;;;;;;;;;5038994;28;20021;-85
2021/12/29 08:32:48;;;;;;;521.28;361.33;;;;;;;;;;5012126;28;20111;-83
2021/12/29 08:35:15;;;;;;;514.42;357.05;;;;;;;;;;5005306;28;20120;-86
2021/12/29 08:37:42;;;;;;;503.23;345.38;;;;;;;;;;5023025;28;20092;-84
2021/12/29 08:40:09;;;;;;;467.38;317.38;;;;;;;;;;5003429;28;20033;-85
2021/12/29 08:42:36;;;;;;;445.95;303.13;;;;;;;;;;5018290;28;20053;-86
2021/12/29 08:45:02;;;;;;;455.73;309.67;;;;;;;;;;5019569;28;20018;-85
2021/12/29 08:47:29;;;;;;;477.70;328.63;;;;;;;;;;5000692;28;20092;-85
2021/12/29 08:49:55;;;;;;;487.35;335.20;;;;;;;;;;5016942;28;20037;-85
2021/12/29 08:52:21;;;;;;;478.45;328.02;;;;;;;;;;5007508;28;20033;-87
2021/12/29 08:54:48;;;;;;;472.33;319.95;;;;;;;;;;5022552;28;20116;-85
2021/12/29 08:57:14;;;;;;;400.38;283.58;;;;;;;;;;5008275;28;20355;-86
2021/12/29 08:59:40;;;;;;;394.17;266.88;;;;;;;;;;5006349;28;20428;-86
2021/12/29 09:02:07;;;;;;;372.10;254.23;;;;;;;;;;5028241;28;20026;-86
2021/12/29 09:04:33;;;;;;;359.25;243.20;;;;;;;;;;5026028;28;20056;-84
2021/12/29 09:07:00;;;;;;;355.80;242.05;;;;;;;;;;5025957;28;20028;-84
2021/12/29 09:09:26;;;;;;;352.90;234.13;;;;;;;;;;5024311;28;20052;-84
2021/12/29 09:11:53;;;;;;;337.05;227.50;;;;;;;;;;5005156;28;20025;-87
2021/12/29 09:14:22;;;;;;;332.10;225.13;;;;;;;;;;5022656;28;20033;-86
2021/12/29 09:16:48;;;;;;;344.25;234.68;;;;;;;;;;5022929;28;20102;-86
2021/12/29 09:19:14;;;;;;;350.13;244.50;;;;;;;;;;5005090;28;20045;-83
2021/12/29 09:21:44;;;;;;;357.70;250.27;;;;;;;;;;5029743;28;20023;-88
2021/12/29 09:24:12;;;;;;;374.70;263.30;;;;;;;;;;5005047;28;20120;-87
2021/12/29 09:26:38;;;;;;;373.25;264.92;;;;;;;;;;5024310;28;20048;-85
2021/12/29 09:29:05;;;;;;;366.35;260.00;;;;;;;;;;5026722;28;20047;-84
2021/12/29 09:31:31;;;;;;;360.85;247.95;;;;;;;;;;5010108;28;20041;-84
2021/12/29 09:33:58;;;;;;;337.33;241.07;;;;;;;;;;5029942;28;20030;-83
2021/12/29 09:36:24;;;;;;;337.95;236.95;;;;;;;;;;5023524;28;20050;-84
2021/12/29 09:38:51;;;;;;;316.20;228.02;;;;;;;;;;5024006;28;20056;-84
2021/12/29 09:41:18;;;;;;;328.38;227.77;;;;;;;;;;5025341;28;20025;-84
2021/12/29 09:43:49;;;;;;;282.65;191.48;;;;;;;;;;5020828;28;20037;-83
2021/12/29 09:46:17;;;;;;;269.55;181.57;;;;;;;;;;5027525;28;20650;-87
2021/12/29 09:48:45;;;;;;;232.57;159.10;;;;;;;;;;5024082;28;20037;-86
2021/12/29 09:51:12;;;;;;;239.73;156.93;;;;;;;;;;5008404;28;20086;-86
2021/12/29 09:53:39;;;;;;;226.60;147.20;;;;;;;;;;5023976;28;20133;-83
2021/12/29 09:56:05;;;;;;;220.02;146.80;;;;;;;;;;5025292;28;20029;-84
2021/12/29 09:58:32;;;;;;;212.35;144.27;;;;;;;;;;5008007;28;20039;-82
2021/12/29 10:01:00;;;;;;;193.60;131.27;;;;;;;;;;5025429;28;20025;-84
2021/12/29 10:03:27;;;;;;;176.90;114.90;;;;;;;;;;5023320;28;20052;-85
2021/12/29 10:05:56;;;;;;;165.57;100.93;;;;;;;;;;5025194;28;20095;-86
2021/12/29 10:08:27;;;;;;;147.45;95.40;;;;;;;;;;5003957;28;20037;-84
2021/12/29 10:10:58;;;;;;;137.13;88.70;;;;;;;;;;5021592;28;20038;-87
2021/12/29 10:13:24;;;;;;;141.45;85.20;;;;;;;;;;5023423;28;20029;-86
2021/12/29 10:15:56;;;;;;;135.48;85.18;;;;;;;;;;5028062;28;20030;-84
2021/12/29 10:18:24;;;;;;;116.97;75.53;;;;;;;;;;5030893;28;20077;-84
2021/12/29 10:20:57;;;;;;;110.07;70.30;;;;;;;;;;5023541;28;20045;-87
2021/12/29 10:23:25;;;;;;;96.57;60.53;;;;;;;;;;5021625;28;20112;-84
2021/12/29 10:25:53;;;;;;;99.38;59.55;;;;;;;;;;5004961;28;20095;-84
2021/12/29 10:28:21;;;;;;;96.03;57.85;;;;;;;;;;5011869;28;20061;-85
2021/12/29 10:30:54;;;;;;;117.15;70.55;;;;;;;;;;5004415;28;20112;-83
2021/12/29 10:33:20;;;;;;;138.63;84.85;;;;;;;;;;5010097;28;20380;-86
2021/12/29 10:35:46;;;;;;;152.30;94.97;;;;;;;;;;5030568;28;20029;-83
2021/12/29 10:38:17;;;;;;;153.70;98.50;;;;;;;;;;5016662;28;20091;-81
2021/12/29 10:40:47;;;;;;;165.50;101.25;;;;;;;;;;5029217;28;20037;-85
2021/12/29 10:43:13;;;;;;;164.82;106.20;;;;;;;;;;5012963;28;20033;-82
2021/12/29 10:45:40;;;;;;;164.68;108.28;;;;;;;;;;5041882;28;20036;-82
2021/12/29 10:48:18;;;;;;;162.88;102.78;;;;;;;;;;5024166;28;20057;-83
2021/12/29 10:51:03;;;;;;;161.77;101.57;;;;;;;;;;5022093;28;20041;-83
2021/12/29 10:53:30;;;;;;;161.75;105.50;;;;;;;;;;5026831;28;20101;-82
2021/12/29 10:55:56;;;;;;;164.05;103.57;;;;;;;;;;5027930;28;20068;-83
2021/12/29 10:58:24;;;;;;;164.75;106.32;;;;;;;;;;5013612;28;20025;-82
2021/12/29 11:00:58;;;;;;;161.25;104.35;;;;;;;;;;5037016;28;20425;-83
2021/12/29 11:03:25;;;;;;;160.63;102.13;;;;;;;;;;5029304;28;20029;-83
2021/12/29 11:05:58;;;;;;;163.43;99.43;;;;;;;;;;5029177;28;20075;-83
2021/12/29 11:11:45;;;;;;;165.38;102.50;;;;;;;;;;5019057;28;20147;-83
2021/12/29 11:14:21;;;;;;;172.13;103.07;;;;;;;;;;5026490;28;20080;-84
2021/12/29 11:17:08;;;;;;;164.15;102.63;;;;;;;;;;5011882;28;20053;-82
2021/12/29 11:19:36;;;;;;;171.85;105.32;;;;;;;;;;5007234;28;20041;-82
2021/12/29 11:22:11;;;;;;;168.23;104.45;;;;;;;;;;5028356;28;20025;-84
2021/12/29 11:24:38;;;;;;;174.10;106.32;;;;;;;;;;5010292;28;20022;-82
2021/12/29 11:27:12;;;;;;;171.75;105.30;;;;;;;;;;5029972;28;20040;-85
2021/12/29 11:29:48;;;;;;;169.82;103.97;;;;;;;;;;5028089;28;20498;-84
2021/12/29 11:32:19;;;;;;;175.45;104.18;;;;;;;;;;5021176;28;20416;-84
2021/12/29 11:34:45;;;;;;;174.88;104.97;;;;;;;;;;5027032;28;20504;-85
2021/12/29 11:37:13;;;;;;;166.85;103.10;;;;;;;;;;5028039;28;20116;-85
2021/12/29 11:39:41;;;;;;;174.25;104.95;;;;;;;;;;5027370;28;20030;-83
2021/12/29 11:42:07;;;;;;;170.38;102.25;;;;;;;;;;5023802;28;20022;-84
2021/12/29 11:44:34;;;;;;;173.52;105.78;;;;;;;;;;5027881;28;20041;-84
2021/12/29 11:47:02;;;;;;;177.65;108.40;;;;;;;;;;5026802;28;20025;-85
2021/12/29 11:49:29;;;;;;;182.23;108.57;;;;;;;;;;5029770;28;20491;-82
2021/12/29 11:52:14;;;;;;;178.95;106.13;;;;;;;;;;5010446;28;20052;-84
2021/12/29 11:54:46;;;;;;;182.93;106.85;;;;;;;;;;5007724;28;20029;-84
2021/12/29 11:57:14;;;;;;;184.95;106.25;;;;;;;;;;5005719;28;20503;-84
2021/12/29 11:59:40;;;;;;;188.80;107.07;;;;;;;;;;5024605;28;20025;-84
2021/12/29 12:02:07;;;;;;;173.88;102.93;;;;;;;;;;5008302;28;20096;-85
2021/12/29 12:04:33;;;;;;;167.10;99.47;;;;;;;;;;5008631;28;20018;-85
2021/12/29 12:07:12;;;;;;;165.23;99.43;;;;;;;;;;5032161;28;20472;-84
2021/12/29 12:09:47;;;;;;;163.77;100.15;;;;;;;;;;5031389;28;20025;-84
2021/12/29 12:12:14;;;;;;;167.77;101.43;;;;;;;;;;5031582;28;20476;-83
2021/12/29 12:14:51;;;;;;;172.35;100.85;;;;;;;;;;5032086;28;20029;-85
2021/12/29 12:17:20;;;;;;;172.98;103.85;;;;;;;;;;5022066;28;20033;-82
2021/12/29 12:19:47;;;;;;;177.15;107.95;;;;;;;;;;5010420;28;20045;-83
2021/12/29 12:22:17;;;;;;;187.00;111.60;;;;;;;;;;5008391;28;20082;-84
2021/12/29 12:24:58;;;;;;;180.55;108.22;;;;;;;;;;5026484;28;20018;-82
2021/12/29 12:27:30;;;;;;;184.57;110.07;;;;;;;;;;5027328;28;20051;-83
2021/12/29 12:30:17;;;;;;;192.80;119.40;;;;;;;;;;5010461;28;20491;-83
2021/12/29 12:32:46;;;;;;;204.25;121.43;;;;;;;;;;5024373;28;20476;-84
2021/12/29 12:35:14;;;;;;;220.43;135.65;;;;;;;;;;5027348;28;20064;-82
2021/12/29 12:37:43;;;;;;;206.48;129.30;;;;;;;;;;5013547;28;20488;-85
2021/12/29 12:40:26;;;;;;;211.65;131.18;;;;;;;;;;5010563;28;20026;-83
2021/12/29 12:43:00;;;;;;;221.63;133.35;;;;;;;;;;5030466;28;20080;-84
2021/12/29 12:45:30;;;;;;;221.13;132.85;;;;;;;;;;5011314;28;20472;-83
2021/12/29 12:48:11;;;;;;;231.02;139.40;;;;;;;;;;5011425;28;20029;-83
2021/12/29 12:50:39;;;;;;;246.55;146.82;;;;;;;;;;5013905;28;20048;-83
2021/12/29 12:53:07;;;;;;;243.60;146.52;;;;;;;;;;5021246;28;20029;-82
2021/12/29 12:55:43;;;;;;;250.20;152.20;;;;;;;;;;5017772;28;20022;-83
2021/12/29 12:58:10;;;;;;;276.20;167.48;;;;;;;;;;5027858;28;20033;-83
2021/12/29 13:00:43;;;;;;;298.02;183.05;;;;;;;;;;5023382;28;20051;-83
2021/12/29 13:03:09;;;;;;;292.08;183.27;;;;;;;;;;5028075;28;20028;-85
2021/12/29 13:05:40;;;;;;;296.73;180.05;;;;;;;;;;5014854;28;20017;-85
2021/12/29 13:08:07;;;;;;;293.85;185.23;;;;;;;;;;5025828;28;20030;-83
2021/12/29 13:10:38;;;;;;;289.92;178.25;;;;;;;;;;5031565;28;20034;-83
2021/12/29 13:13:11;;;;;;;290.48;180.02;;;;;;;;;;5024681;28;20026;-83
2021/12/29 13:15:38;;;;;;;272.42;171.52;;;;;;;;;;5026893;28;20056;-82
2021/12/29 13:18:05;;;;;;;267.75;167.70;;;;;;;;;;5027501;28;20131;-86
2021/12/29 13:20:31;;;;;;;263.10;152.50;;;;;;;;;;5012139;28;20022;-83
2021/12/29 13:22:58;;;;;;;224.95;139.52;;;;;;;;;;5022096;28;20025;-84
2021/12/29 13:25:28;;;;;;;205.20;126.25;;;;;;;;;;5015216;28;20472;-86
2021/12/29 13:28:28;;;;;;;197.20;118.82;;;;;;;;;;5022790;28;20028;-85
2021/12/29 13:31:05;;;;;;;185.18;109.40;;;;;;;;;;5004399;28;20034;-84
2021/12/29 13:33:35;;;;;;;164.98;92.50;;;;;;;;;;5024483;28;20102;-84
2021/12/29 13:36:03;;;;;;;132.68;81.78;;;;;;;;;;5018788;28;20040;-84
2021/12/29 13:38:32;;;;;;;144.68;82.18;;;;;;;;;;5014987;28;20032;-84
2021/12/29 13:40:59;;;;;;;137.27;79.47;;;;;;;;;;5015564;28;20075;-84
2021/12/29 13:43:27;;;;;;;148.05;79.03;;;;;;;;;;5033104;28;20036;-84
2021/12/29 13:45:55;;;;;;;129.60;75.78;;;;;;;;;;5015117;28;20032;-84
2021/12/29 13:48:31;;;;;;;129.35;73.20;;;;;;;;;;5015598;28;20069;-84
2021/12/29 13:51:03;;;;;;;130.27;72.60;;;;;;;;;;5033618;28;20022;-83
2021/12/29 13:53:29;;;;;;;130.23;70.80;;;;;;;;;;5031407;28;20018;-84
2021/12/29 13:55:56;;;;;;;122.90;66.60;;;;;;;;;;5020392;28;20030;-84
2021/12/29 13:58:25;;;;;;;119.43;64.63;;;;;;;;;;5014515;28;20385;-83
2021/12/29 14:00:51;;;;;;;122.10;66.47;;;;;;;;;;5033056;28;20041;-83
2021/12/29 14:03:18;;;;;;;113.80;62.30;;;;;;;;;;5032917;28;20033;-84
2021/12/29 14:05:45;;;;;;;114.32;61.15;;;;;;;;;;5031004;28;20021;-84
2021/12/29 14:08:13;;;;;;;110.28;57.92;;;;;;;;;;5031807;28;20037;-83
2021/12/29 14:10:40;;;;;;;109.80;58.97;;;;;;;;;;5018760;28;20033;-83
2021/12/29 14:13:13;;;;;;;101.93;56.40;;;;;;;;;;5030577;28;20047;-85
2021/12/29 14:15:39;;;;;;;96.63;53.00;;;;;;;;;;5027917;28;20027;-85
2021/12/29 14:18:22;;;;;;;92.20;52.13;;;;;;;;;;5031050;28;20403;-85
2021/12/29 14:20:52;;;;;;;90.75;52.70;;;;;;;;;;5029708;28;20064;-85